createdAt,value
2023-05-14T00:01:37.262Z,4.03
2023-05-14T00:03:42.398Z,4.50
2023-05-14T00:05:47.392Z,4.53
2023-05-14T00:07:54.768Z,4.05
2023-05-14T00:09:59.614Z,4.47
2023-05-14T00:12:04.401Z,4.28
2023-05-14T00:14:09.496Z,4.25
2023-05-14T00:16:14.812Z,4.28
2023-05-14T00:18:19.720Z,4.90
2023-05-14T00:20:24.727Z,4.50
2023-05-14T00:22:30.075Z,4.60
2023-05-14T00:24:40.202Z,4.93
2023-05-14T00:26:44.990Z,4.70
2023-05-14T00:28:49.764Z,4.05
2023-05-14T00:30:54.842Z,4.50
2023-05-14T00:32:59.728Z,4.72
2023-05-14T00:35:05.149Z,4.60
2023-05-14T00:37:09.976Z,4.40
2023-05-14T00:39:15.663Z,5.28
2023-05-14T00:41:23.168Z,4.93
2023-05-14T00:43:28.092Z,5.20
2023-05-14T00:45:32.852Z,4.72
2023-05-14T00:47:39.586Z,4.43
2023-05-14T00:49:45.203Z,5.05
2023-05-14T00:51:50.221Z,4.72
2023-05-14T00:53:56.190Z,5.35
2023-05-14T00:56:02.019Z,4.07
2023-05-14T00:58:13.244Z,4.43
2023-05-14T01:00:19.747Z,4.38
2023-05-14T01:02:24.884Z,4.50
2023-05-14T01:04:30.197Z,4.55
2023-05-14T01:06:43.807Z,5.20
2023-05-14T01:08:56.546Z,4.43
2023-05-14T01:11:08.362Z,4.65
2023-05-14T01:13:21.259Z,4.22
2023-05-14T01:15:31.208Z,4.45
2023-05-14T01:17:41.368Z,4.22
2023-05-14T01:19:47.589Z,4.30
2023-05-14T01:21:55.200Z,4.47
2023-05-14T01:24:00.218Z,8.65
2023-05-14T01:26:05.376Z,7.25
2023-05-14T01:28:17.648Z,6.72
2023-05-14T01:30:29.897Z,5.68
2023-05-14T01:32:36.731Z,5.10
2023-05-14T01:34:43.358Z,5.30
2023-05-14T01:36:48.636Z,5.28
2023-05-14T01:38:57.560Z,5.22
2023-05-14T01:41:04.202Z,5.35
2023-05-14T01:43:09.369Z,5.00
2023-05-14T01:45:14.909Z,5.40
2023-05-14T01:47:20.085Z,5.45
2023-05-14T01:49:24.884Z,5.45
2023-05-14T01:51:29.768Z,5.00
2023-05-14T01:53:35.117Z,6.22
2023-05-14T01:55:42.708Z,5.25
2023-05-14T01:57:47.952Z,5.40
2023-05-14T01:59:52.954Z,5.78
2023-05-14T02:01:57.871Z,5.60
2023-05-14T02:04:03.025Z,6.75
2023-05-14T02:06:08.045Z,5.07
2023-05-14T02:08:13.096Z,5.07
2023-05-14T02:10:18.026Z,5.45
2023-05-14T02:12:30.411Z,5.25
2023-05-14T02:14:35.157Z,5.35
2023-05-14T02:16:39.957Z,5.10
2023-05-14T02:18:44.838Z,6.07
2023-05-14T02:20:49.808Z,5.10
2023-05-14T02:22:55.349Z,5.00
2023-05-14T02:25:00.251Z,5.38
2023-05-14T02:27:05.238Z,5.30
2023-05-14T02:29:12.744Z,6.00
2023-05-14T02:31:19.256Z,6.07
2023-05-14T02:33:24.175Z,5.45
2023-05-14T02:35:29.791Z,5.55
2023-05-14T02:37:34.909Z,5.50
2023-05-14T02:39:39.663Z,5.80
2023-05-14T02:41:44.655Z,6.70
2023-05-14T02:43:49.460Z,5.85
2023-05-14T02:45:57.062Z,5.88
2023-05-14T02:48:02.049Z,6.60
2023-05-14T02:50:07.967Z,6.03
2023-05-14T02:52:12.855Z,5.78
2023-05-14T02:54:18.913Z,6.32
2023-05-14T02:56:24.067Z,5.65
2023-05-14T02:58:29.154Z,6.00
2023-05-14T03:00:34.203Z,5.95
2023-05-14T03:02:43.791Z,5.70
2023-05-14T03:04:49.964Z,5.53
2023-05-14T03:06:54.793Z,5.53
2023-05-14T03:08:59.856Z,5.32
2023-05-14T03:11:04.864Z,5.63
2023-05-14T03:13:09.982Z,4.85
2023-05-14T03:15:15.191Z,5.88
2023-05-14T03:17:19.981Z,5.43
2023-05-14T03:19:27.451Z,5.45
2023-05-14T03:21:32.342Z,6.15
2023-05-14T03:23:37.575Z,5.63
2023-05-14T03:25:42.417Z,5.30
2023-05-14T03:27:47.402Z,5.32
2023-05-14T03:29:52.173Z,5.85
2023-05-14T03:31:57.842Z,5.57
2023-05-14T03:34:02.826Z,5.03
2023-05-14T03:36:10.849Z,5.72
2023-05-14T03:38:15.844Z,5.13
2023-05-14T03:40:21.845Z,5.85
2023-05-14T03:42:27.379Z,5.13
2023-05-14T03:44:32.223Z,5.40
2023-05-14T03:46:37.269Z,5.65
2023-05-14T03:48:42.835Z,5.28
2023-05-14T03:50:48.013Z,6.00
2023-05-14T03:52:55.730Z,5.43
2023-05-14T03:55:00.909Z,5.80
2023-05-14T03:57:05.875Z,6.18
2023-05-14T03:59:10.662Z,6.20
2023-05-14T04:01:16.771Z,5.57
2023-05-14T04:03:21.755Z,5.95
2023-05-14T04:05:27.227Z,5.95
2023-05-14T04:07:32.082Z,6.10
2023-05-14T04:09:39.874Z,6.97
2023-05-14T04:11:44.706Z,6.13
2023-05-14T04:13:49.770Z,7.00
2023-05-14T04:15:54.838Z,6.78
2023-05-14T04:17:59.885Z,7.10
2023-05-14T04:20:05.796Z,7.00
2023-05-14T04:22:11.818Z,7.07
2023-05-14T04:24:16.805Z,7.40
2023-05-14T04:26:24.345Z,8.15
2023-05-14T04:28:29.293Z,7.20
2023-05-14T04:30:34.295Z,7.68
2023-05-14T04:32:39.658Z,8.20
2023-05-14T04:34:44.566Z,7.72
2023-05-14T04:36:49.344Z,8.23
2023-05-14T04:38:54.406Z,8.13
2023-05-14T04:40:59.347Z,7.50
2023-05-14T04:43:06.874Z,8.27
2023-05-14T04:45:12.988Z,8.75
2023-05-14T04:47:18.079Z,8.25
2023-05-14T04:49:23.232Z,8.23
2023-05-14T04:51:28.424Z,8.45
2023-05-14T04:53:33.309Z,8.23
2023-05-14T04:55:38.345Z,8.23
2023-05-14T04:57:43.397Z,7.80
2023-05-14T04:59:51.084Z,7.80
2023-05-14T05:01:55.864Z,8.05
2023-05-14T05:04:00.814Z,7.65
2023-05-14T05:06:05.690Z,7.13
2023-05-14T05:08:11.589Z,6.80
2023-05-14T05:10:16.568Z,7.95
2023-05-14T05:12:21.656Z,6.82
2023-05-14T05:14:26.695Z,6.82
2023-05-14T05:16:34.414Z,6.82
2023-05-14T05:18:39.625Z,6.97
2023-05-14T05:20:44.524Z,7.25
2023-05-14T05:22:49.295Z,7.55
2023-05-14T05:24:54.371Z,7.40
2023-05-14T05:26:59.429Z,6.60
2023-05-14T05:29:04.220Z,7.13
2023-05-14T05:31:09.117Z,5.95
2023-05-14T05:33:17.076Z,6.45
2023-05-14T05:35:21.934Z,6.70
2023-05-14T05:37:26.815Z,5.65
2023-05-14T05:39:35.223Z,6.07
2023-05-14T05:41:40.892Z,5.65
2023-05-14T05:43:45.722Z,8.07
2023-05-14T05:45:50.851Z,7.47
2023-05-14T05:47:55.634Z,7.22
2023-05-14T05:50:03.144Z,6.78
2023-05-14T05:52:08.609Z,5.95
2023-05-14T05:54:13.355Z,5.53
2023-05-14T05:56:18.178Z,5.93
2023-05-14T05:58:23.136Z,6.28
2023-05-14T06:00:27.907Z,6.38
2023-05-14T06:02:32.852Z,4.95
2023-05-14T06:04:37.756Z,5.75
2023-05-14T06:06:45.496Z,5.78
2023-05-14T06:08:50.367Z,6.25
2023-05-14T06:10:55.224Z,5.20
2023-05-14T06:13:00.350Z,5.75
2023-05-14T06:15:05.196Z,5.63
2023-05-14T06:17:10.456Z,5.97
2023-05-14T06:19:15.531Z,6.03
2023-05-14T06:21:20.400Z,6.07
2023-05-14T06:23:28.040Z,5.70
2023-05-14T06:25:32.831Z,5.65
2023-05-14T06:27:37.685Z,5.47
2023-05-14T06:29:42.481Z,5.03
2023-05-14T06:31:47.599Z,5.53
2023-05-14T06:33:52.647Z,6.30
2023-05-14T06:35:57.432Z,6.43
2023-05-14T06:38:02.568Z,5.40
2023-05-14T06:40:11.641Z,6.20
2023-05-14T06:42:16.360Z,5.47
2023-05-14T06:44:22.696Z,6.80
2023-05-14T06:46:27.567Z,5.38
2023-05-14T06:48:32.541Z,6.05
2023-05-14T06:50:37.501Z,5.22
2023-05-14T06:52:43.762Z,5.85
2023-05-14T06:54:48.502Z,5.68
2023-05-14T06:56:56.252Z,5.47
2023-05-14T06:59:01.207Z,5.97
2023-05-14T07:01:06.684Z,6.03
2023-05-14T07:03:11.724Z,5.70
2023-05-14T07:05:16.817Z,4.60
2023-05-14T07:07:21.831Z,4.75
2023-05-14T07:09:26.834Z,5.70
2023-05-14T07:11:31.673Z,4.75
2023-05-14T07:13:39.269Z,4.90
2023-05-14T07:15:44.060Z,4.65
2023-05-14T07:17:49.112Z,5.57
2023-05-14T07:19:55.685Z,5.28
2023-05-14T07:22:01.546Z,5.18
2023-05-14T07:24:07.120Z,4.85
2023-05-14T07:26:11.963Z,5.03
2023-05-14T07:28:16.784Z,5.47
2023-05-14T07:30:24.842Z,5.35
2023-05-14T07:32:29.890Z,5.90
2023-05-14T07:34:34.776Z,6.43
2023-05-14T07:36:39.696Z,5.25
2023-05-14T07:38:44.736Z,6.00
2023-05-14T07:40:49.553Z,5.65
2023-05-14T07:42:54.695Z,5.53
2023-05-14T07:44:59.528Z,7.10
2023-05-14T07:47:11.087Z,6.22
2023-05-14T07:49:16.101Z,5.50
2023-05-14T07:51:20.945Z,6.25
2023-05-14T07:53:26.422Z,5.43
2023-05-14T07:55:31.606Z,5.85
2023-05-14T07:57:36.360Z,5.70
2023-05-14T07:59:41.144Z,5.75
2023-05-14T08:01:45.934Z,6.30
2023-05-14T08:03:53.651Z,5.95
2023-05-14T08:05:58.848Z,5.53
2023-05-14T08:08:03.792Z,5.40
2023-05-14T08:10:10.575Z,5.68
2023-05-14T08:12:16.487Z,5.20
2023-05-14T08:14:21.692Z,5.45
2023-05-14T08:16:26.540Z,6.40
2023-05-14T08:18:31.655Z,5.43
2023-05-14T08:20:39.197Z,5.20
2023-05-14T08:22:43.882Z,5.55
2023-05-14T08:24:49.035Z,6.07
2023-05-14T08:26:54.142Z,5.68
2023-05-14T08:28:59.321Z,6.03
2023-05-14T08:31:04.102Z,5.45
2023-05-14T08:33:09.136Z,6.50
2023-05-14T08:35:14.595Z,5.72
2023-05-14T08:37:22.910Z,5.68
2023-05-14T08:39:27.849Z,5.75
2023-05-14T08:41:32.889Z,6.63
2023-05-14T08:43:47.203Z,6.70
2023-05-14T08:45:55.663Z,6.53
2023-05-14T08:48:02.933Z,5.80
2023-05-14T08:50:09.876Z,6.43
2023-05-14T08:52:15.947Z,6.13
2023-05-14T08:54:24.918Z,5.90
2023-05-14T08:56:30.821Z,6.30
2023-05-14T08:58:35.739Z,5.13
2023-05-14T09:00:40.525Z,6.25
2023-05-14T09:02:47.799Z,5.80
2023-05-14T09:04:57.062Z,6.50
2023-05-14T09:07:04.680Z,5.15
2023-05-14T09:09:10.336Z,5.75
2023-05-14T09:11:17.785Z,5.18
2023-05-14T09:13:22.526Z,5.18
2023-05-14T09:15:30.676Z,4.90
2023-05-14T09:17:37.115Z,5.30
2023-05-14T09:19:42.817Z,5.43
2023-05-14T09:21:48.958Z,5.80
2023-05-14T09:23:58.257Z,5.65
2023-05-14T09:26:07.719Z,5.40
2023-05-14T09:28:15.514Z,5.10
2023-05-14T09:30:20.847Z,5.82
2023-05-14T09:32:25.753Z,5.22
2023-05-14T09:34:32.383Z,5.28
2023-05-14T09:36:38.357Z,5.25
2023-05-14T09:38:43.364Z,4.90
2023-05-14T09:40:49.444Z,6.25
2023-05-14T09:42:54.274Z,5.55
2023-05-14T09:45:02.230Z,4.93
2023-05-14T09:47:07.488Z,4.38
2023-05-14T09:49:12.365Z,4.68
2023-05-14T09:51:17.815Z,4.28
2023-05-14T09:53:22.992Z,4.45
2023-05-14T09:55:28.908Z,4.93
2023-05-14T09:57:33.838Z,5.00
2023-05-14T09:59:38.738Z,4.53
2023-05-14T10:01:46.835Z,4.60
2023-05-14T10:03:52.620Z,4.28
2023-05-14T10:05:59.515Z,5.13
2023-05-14T10:08:08.099Z,4.43
2023-05-14T10:10:16.632Z,5.88
2023-05-14T10:12:26.383Z,4.30
2023-05-14T10:14:39.080Z,5.07
2023-05-14T10:16:49.735Z,5.80
2023-05-14T10:18:59.502Z,5.82
2023-05-14T10:21:08.558Z,5.30
2023-05-14T10:23:13.630Z,5.60
2023-05-14T10:25:19.298Z,4.57
2023-05-14T10:27:25.403Z,5.55
2023-05-14T10:29:36.248Z,5.60
2023-05-14T10:31:54.484Z,5.88
2023-05-14T10:33:59.917Z,5.50
2023-05-14T10:36:07.279Z,5.32
2023-05-14T10:38:12.075Z,5.40
2023-05-14T10:40:18.723Z,5.45
2023-05-14T10:42:26.016Z,5.07
2023-05-14T10:44:31.990Z,4.65
2023-05-14T10:46:37.003Z,5.40
2023-05-14T10:48:46.249Z,4.72
2023-05-14T10:50:51.338Z,4.28
2023-05-14T10:52:57.366Z,4.18
2023-05-14T10:55:03.958Z,5.20
2023-05-14T10:57:14.462Z,4.55
2023-05-14T10:59:20.328Z,4.10
2023-05-14T11:01:27.224Z,4.00
2023-05-14T11:03:33.522Z,4.10
2023-05-14T11:05:43.823Z,4.28
2023-05-14T11:07:50.782Z,4.00
2023-05-14T11:09:57.052Z,4.20
2023-05-14T11:12:01.878Z,4.40
2023-05-14T11:14:08.468Z,3.78
2023-05-14T11:16:23.411Z,4.05
2023-05-14T11:18:33.721Z,3.95
2023-05-14T11:20:41.407Z,4.05
2023-05-14T11:22:47.421Z,3.58
2023-05-14T11:24:53.054Z,3.50
2023-05-14T11:26:59.054Z,3.58
2023-05-14T11:29:04.217Z,3.75
2023-05-14T11:31:09.076Z,3.70
2023-05-14T11:33:14.174Z,2.95
2023-05-14T11:35:19.664Z,3.25
2023-05-14T11:37:27.188Z,3.40
2023-05-14T11:39:32.160Z,3.20
2023-05-14T11:41:37.051Z,3.30
2023-05-14T11:43:41.902Z,3.25
2023-05-14T11:45:52.105Z,4.28
2023-05-14T11:47:57.227Z,4.32
2023-05-14T11:50:03.000Z,4.18
2023-05-14T11:52:10.390Z,4.90
2023-05-14T11:54:19.707Z,4.88
2023-05-14T11:56:24.783Z,3.80
2023-05-14T11:58:29.633Z,4.03
2023-05-14T12:00:34.538Z,4.15
2023-05-14T12:02:40.356Z,4.70
2023-05-14T12:04:46.672Z,4.38
2023-05-14T12:06:52.189Z,4.22
2023-05-14T12:09:00.968Z,4.30
2023-05-14T12:11:08.917Z,3.88
2023-05-14T12:13:13.858Z,4.47
2023-05-14T12:15:21.967Z,4.03
2023-05-14T12:17:27.093Z,3.97
2023-05-14T12:19:33.375Z,4.20
2023-05-14T12:21:38.308Z,3.65
2023-05-14T12:23:43.068Z,3.92
2023-05-14T12:25:54.722Z,4.03
2023-05-14T12:28:02.151Z,3.55
2023-05-14T12:32:18.145Z,4.07
2023-05-14T12:34:22.955Z,3.63
2023-05-14T12:36:28.074Z,3.78
2023-05-14T12:38:35.094Z,3.95
2023-05-14T12:40:39.923Z,3.95
2023-05-14T12:42:44.981Z,3.78
2023-05-14T12:44:52.659Z,4.25
2023-05-14T12:46:58.561Z,3.75
2023-05-14T12:49:04.043Z,4.07
2023-05-14T12:51:09.208Z,4.85
2023-05-14T12:53:16.522Z,3.72
2023-05-14T12:55:21.449Z,3.85
2023-05-14T12:57:27.158Z,3.38
2023-05-14T12:59:32.031Z,3.30
2023-05-14T13:01:40.245Z,3.67
2023-05-14T13:03:45.180Z,3.38
2023-05-14T13:05:50.345Z,3.20
2023-05-14T13:07:56.080Z,3.30
2023-05-14T13:10:01.328Z,3.67
2023-05-14T13:12:06.557Z,3.97
2023-05-14T13:14:11.400Z,2.85
2023-05-14T13:16:17.269Z,3.03
2023-05-14T13:18:26.700Z,2.95
2023-05-14T13:20:32.477Z,3.50
2023-05-14T13:22:39.769Z,3.10
2023-05-14T13:24:44.842Z,3.15
2023-05-14T13:26:49.614Z,3.53
2023-05-14T13:28:54.841Z,3.28
2023-05-14T13:31:08.384Z,3.13
2023-05-14T13:33:13.448Z,3.28
2023-05-14T13:35:21.148Z,3.33
2023-05-14T13:37:27.107Z,2.90
2023-05-14T13:39:31.846Z,2.42
2023-05-14T13:41:38.103Z,2.45
2023-05-14T13:43:43.139Z,2.97
2023-05-14T13:45:48.190Z,2.75
2023-05-14T13:47:53.086Z,3.25
2023-05-14T13:49:59.502Z,2.70
2023-05-14T13:52:07.926Z,2.40
2023-05-14T13:54:13.126Z,2.10
2023-05-14T13:56:18.144Z,2.20
2023-05-14T13:58:23.190Z,1.92
2023-05-14T14:00:28.338Z,2.20
2023-05-14T14:02:34.246Z,2.30
2023-05-14T14:04:39.312Z,2.20
2023-05-14T14:06:44.184Z,2.25
2023-05-14T14:08:51.680Z,2.28
2023-05-14T14:10:57.378Z,2.17
2023-05-14T14:13:02.254Z,2.15
2023-05-14T14:15:08.788Z,2.10
2023-05-14T14:17:13.623Z,2.10
2023-05-14T14:19:18.786Z,2.20
2023-05-14T14:21:24.716Z,2.03
2023-05-14T14:23:29.620Z,2.17
2023-05-14T14:25:37.096Z,2.50
2023-05-14T14:27:42.332Z,2.47
2023-05-14T14:29:47.161Z,2.13
2023-05-14T14:31:52.111Z,2.00
2023-05-14T14:33:57.353Z,1.67
2023-05-14T14:36:02.275Z,1.77
2023-05-14T14:38:07.159Z,1.60
2023-05-14T14:40:12.818Z,1.63
2023-05-14T14:42:20.484Z,1.10
2023-05-14T14:44:25.803Z,1.40
2023-05-14T14:46:30.945Z,1.50
2023-05-14T14:48:37.845Z,1.45
2023-05-14T14:50:42.811Z,1.38
2023-05-14T14:52:48.282Z,1.30
2023-05-14T14:54:53.336Z,1.38
2023-05-14T14:56:58.173Z,2.05
2023-05-14T14:59:05.701Z,1.30
2023-05-14T15:01:10.792Z,1.13
2023-05-14T15:03:16.084Z,1.08
2023-05-14T15:05:21.655Z,1.15
2023-05-14T15:07:26.456Z,1.17
2023-05-14T15:09:31.391Z,1.20
2023-05-14T15:11:37.507Z,1.42
2023-05-14T15:13:43.264Z,1.02
2023-05-14T15:15:50.695Z,1.90
2023-05-14T15:17:55.610Z,1.40
2023-05-14T15:20:00.347Z,1.55
2023-05-14T15:22:05.297Z,1.60
2023-05-14T15:24:13.953Z,1.92
2023-05-14T15:26:18.981Z,1.60
2023-05-14T15:28:24.279Z,1.65
2023-05-14T15:30:29.044Z,1.60
2023-05-14T15:32:37.079Z,2.00
2023-05-14T15:34:42.508Z,1.90
2023-05-14T15:36:47.415Z,1.92
2023-05-14T15:38:52.486Z,2.40
2023-05-14T15:40:57.225Z,2.25
2023-05-14T15:43:02.029Z,1.75
2023-05-14T15:45:07.858Z,1.77
2023-05-14T15:47:12.870Z,1.80
2023-05-14T15:49:20.762Z,2.03
2023-05-14T15:51:25.974Z,1.77
2023-05-14T15:53:30.890Z,1.45
2023-05-14T15:55:36.047Z,1.20
2023-05-14T15:57:40.950Z,1.00
2023-05-14T15:59:46.223Z,1.50
2023-05-14T16:01:51.133Z,1.23
2023-05-14T16:03:56.227Z,1.35
2023-05-14T16:06:04.245Z,1.20
2023-05-14T16:08:09.881Z,1.40
2023-05-14T16:10:14.729Z,1.25
2023-05-14T16:12:19.660Z,1.15
2023-05-14T16:14:25.079Z,1.27
2023-05-14T16:16:30.677Z,1.40
2023-05-14T16:18:35.766Z,1.42
2023-05-14T16:20:40.674Z,1.50
2023-05-14T16:22:47.976Z,1.73
2023-05-14T16:24:52.757Z,1.70
2023-05-14T16:26:57.545Z,1.65
2023-05-14T16:29:02.543Z,1.73
2023-05-14T16:31:07.754Z,1.60
2023-05-14T16:33:12.647Z,1.60
2023-05-14T16:35:18.094Z,1.92
2023-05-14T16:37:22.974Z,1.83
2023-05-14T16:39:31.366Z,2.25
2023-05-14T16:41:36.481Z,2.25
2023-05-14T16:43:41.197Z,1.77
2023-05-14T16:45:46.115Z,2.20
2023-05-14T16:47:51.041Z,1.48
2023-05-14T16:49:56.029Z,2.08
2023-05-14T16:52:01.008Z,1.70
2023-05-14T16:54:05.994Z,2.22
2023-05-14T16:56:13.821Z,1.67
2023-05-14T16:58:18.625Z,1.60
2023-05-14T17:00:23.399Z,1.50
2023-05-14T17:02:28.366Z,1.80
2023-05-14T17:04:33.615Z,1.70
2023-05-14T17:06:38.829Z,1.60
2023-05-14T17:08:43.641Z,1.90
2023-05-14T17:10:48.505Z,1.40
2023-05-14T17:12:56.029Z,1.73
2023-05-14T17:15:03.708Z,1.98
2023-05-14T17:17:10.083Z,1.70
2023-05-14T17:19:14.957Z,1.70
2023-05-14T17:21:19.720Z,1.55
2023-05-14T17:23:24.556Z,1.33
2023-05-14T17:25:29.388Z,1.30
2023-05-14T17:27:34.634Z,1.48
2023-05-14T17:29:42.046Z,2.05
2023-05-14T17:31:48.365Z,2.28
2023-05-14T17:33:53.238Z,2.58
2023-05-14T17:35:58.088Z,2.47
2023-05-14T17:38:02.804Z,1.83
2023-05-14T17:40:11.740Z,2.28
2023-05-14T17:42:16.928Z,2.00
2023-05-14T17:44:21.945Z,2.10
2023-05-14T17:46:29.690Z,2.10
2023-05-14T17:48:34.473Z,2.38
2023-05-14T17:50:39.871Z,2.80
2023-05-14T17:52:46.280Z,2.45
2023-05-14T17:54:51.529Z,2.40
2023-05-14T17:56:56.555Z,1.90
2023-05-14T17:59:01.326Z,2.13
2023-05-14T18:01:06.296Z,1.85
2023-05-14T18:03:14.430Z,2.10
2023-05-14T18:05:20.699Z,1.70
2023-05-14T18:07:25.867Z,1.40
2023-05-14T18:09:30.702Z,1.70
2023-05-14T18:11:35.804Z,1.65
2023-05-14T18:13:40.679Z,1.70
2023-05-14T18:15:45.554Z,1.60
2023-05-14T18:17:50.683Z,1.50
2023-05-14T18:19:59.200Z,1.65
2023-05-14T18:22:04.284Z,1.77
2023-05-14T18:24:10.049Z,1.70
2023-05-14T18:26:14.915Z,1.70
2023-05-14T18:28:24.004Z,1.38
2023-05-14T18:30:29.062Z,1.90
2023-05-14T18:32:34.030Z,2.13
2023-05-14T18:34:38.914Z,2.33
2023-05-14T18:36:46.663Z,2.35
2023-05-14T18:38:51.500Z,2.30
2023-05-14T18:40:56.324Z,1.98
2023-05-14T18:43:01.147Z,2.00
2023-05-14T18:45:06.179Z,2.30
2023-05-14T18:47:11.258Z,2.38
2023-05-14T18:49:16.204Z,2.40
2023-05-14T18:51:21.019Z,1.83
2023-05-14T18:53:29.653Z,1.52
2023-05-14T18:55:35.364Z,1.90
2023-05-14T18:57:40.539Z,2.22
2023-05-14T18:59:45.553Z,2.17
2023-05-14T19:01:50.308Z,1.75
2023-05-14T19:03:56.460Z,2.00
2023-05-14T19:06:01.388Z,1.98
2023-05-14T19:08:06.425Z,2.03
2023-05-14T19:10:14.787Z,2.15
2023-05-14T19:12:19.526Z,2.00
2023-05-14T19:14:24.311Z,1.98
2023-05-14T19:16:29.368Z,2.00
2023-05-14T19:18:34.282Z,1.65
2023-05-14T19:20:39.401Z,2.00
2023-05-14T19:22:44.500Z,2.00
2023-05-14T19:26:57.613Z,1.90
2023-05-14T19:29:02.439Z,2.00
2023-05-14T19:31:07.325Z,2.38
2023-05-14T19:33:12.317Z,2.72
2023-05-14T19:35:17.406Z,2.40
2023-05-14T19:37:22.417Z,2.75
2023-05-14T19:39:27.377Z,2.42
2023-05-14T19:41:32.612Z,1.80
2023-05-14T19:43:39.930Z,1.98
2023-05-14T19:45:46.060Z,1.80
2023-05-14T19:47:51.042Z,1.50
2023-05-14T19:49:56.187Z,1.20
2023-05-14T19:52:01.128Z,1.40
2023-05-14T19:54:06.950Z,1.27
2023-05-14T19:56:11.723Z,1.40
2023-05-14T19:58:16.513Z,1.40
2023-05-14T20:00:24.377Z,1.50
2023-05-14T20:02:29.585Z,2.00
2023-05-14T20:04:35.063Z,4.05
2023-05-14T20:06:40.466Z,4.13
2023-05-14T20:08:45.403Z,3.90
2023-05-14T20:10:51.098Z,5.13
2023-05-14T20:12:55.835Z,5.22
2023-05-14T20:15:00.686Z,5.22
2023-05-14T20:17:08.813Z,4.25
2023-05-14T20:19:13.960Z,3.67
2023-05-14T20:21:18.821Z,4.28
2023-05-14T20:23:23.743Z,3.60
2023-05-14T20:25:29.261Z,2.72
2023-05-14T20:27:34.533Z,2.70
2023-05-14T20:29:39.387Z,2.08
2023-05-14T20:31:44.400Z,2.20
2023-05-14T20:33:51.850Z,2.20
2023-05-14T20:35:56.691Z,1.70
2023-05-14T20:38:02.402Z,2.10
2023-05-14T20:40:10.641Z,2.47
2023-05-14T20:42:15.705Z,2.83
2023-05-14T20:44:20.816Z,3.30
2023-05-14T20:46:25.883Z,2.67
2023-05-14T20:48:30.708Z,2.30
2023-05-14T20:50:38.748Z,1.85
2023-05-14T20:52:43.532Z,2.00
2023-05-14T20:54:49.231Z,2.10
2023-05-14T20:56:54.078Z,1.77
2023-05-14T20:58:58.867Z,1.90
2023-05-14T21:01:04.008Z,2.35
2023-05-14T21:03:08.915Z,2.22
2023-05-14T21:05:14.063Z,1.90
2023-05-14T21:07:21.536Z,1.88
2023-05-14T21:09:27.440Z,1.85
2023-05-14T21:11:32.163Z,2.05
2023-05-14T21:13:37.180Z,2.00
2023-05-14T21:15:42.111Z,2.00
2023-05-14T21:17:47.073Z,1.85
2023-05-14T21:19:51.886Z,2.10
2023-05-14T21:21:56.653Z,1.92
2023-05-14T21:24:04.042Z,2.10
2023-05-14T21:26:08.930Z,2.08
2023-05-14T21:28:13.851Z,1.95
2023-05-14T21:30:19.097Z,2.13
2023-05-14T21:32:24.404Z,1.70
2023-05-14T21:34:31.252Z,1.60
2023-05-14T21:36:36.876Z,1.80
2023-05-14T21:38:41.863Z,1.92
2023-05-14T21:40:49.320Z,1.90
2023-05-14T21:42:54.316Z,1.63
2023-05-14T21:44:59.088Z,1.90
2023-05-14T21:47:04.301Z,2.35
2023-05-14T21:49:09.074Z,2.00
2023-05-14T21:51:14.203Z,1.83
2023-05-14T21:53:18.982Z,2.17
2023-05-14T21:55:24.394Z,2.33
2023-05-14T21:57:34.660Z,2.10
2023-05-14T21:59:40.192Z,2.22
2023-05-14T22:02:05.381Z,1.95
2023-05-14T22:04:10.770Z,2.25
2023-05-14T22:06:15.681Z,2.40
2023-05-14T22:08:20.558Z,1.95
2023-05-14T22:10:25.541Z,1.92
2023-05-14T22:12:33.030Z,1.98
2023-05-14T22:14:37.933Z,1.88
2023-05-14T22:16:42.883Z,2.00
2023-05-14T22:18:48.282Z,2.38
2023-05-14T22:20:53.336Z,2.70
2023-05-14T22:22:58.228Z,2.53
2023-05-14T22:25:03.008Z,2.03
2023-05-14T22:27:08.410Z,2.15
2023-05-14T22:29:15.963Z,2.10
2023-05-14T22:31:21.198Z,2.03
2023-05-14T22:33:25.950Z,1.92
2023-05-14T22:35:30.746Z,2.55
2023-05-14T22:37:35.591Z,2.25
2023-05-14T22:39:40.526Z,2.00
2023-05-14T22:41:46.091Z,1.75
2023-05-14T22:43:51.286Z,2.10
2023-05-14T22:45:59.210Z,2.03
2023-05-14T22:48:04.044Z,2.08
2023-05-14T22:50:11.787Z,2.05
2023-05-14T22:52:16.568Z,2.22
2023-05-14T22:54:21.449Z,1.90
2023-05-14T22:56:26.584Z,1.63
2023-05-14T22:58:31.471Z,1.90
2023-05-14T23:00:36.228Z,2.00
2023-05-14T23:02:43.707Z,1.92
2023-05-14T23:04:48.797Z,1.75
2023-05-14T23:06:53.849Z,1.80
2023-05-14T23:08:58.778Z,1.90
2023-05-14T23:11:03.823Z,1.70
2023-05-14T23:13:08.674Z,1.85
2023-05-14T23:15:13.995Z,2.10
2023-05-14T23:17:20.119Z,2.22
2023-05-14T23:19:27.742Z,2.13
2023-05-14T23:21:32.546Z,2.17
2023-05-14T23:23:37.952Z,2.65
2023-05-14T23:25:42.772Z,2.15
2023-05-14T23:27:48.220Z,2.20
2023-05-14T23:29:53.201Z,2.30
2023-05-14T23:31:58.032Z,1.95
2023-05-14T23:34:03.185Z,2.22
2023-05-14T23:36:11.717Z,2.13
2023-05-14T23:38:16.591Z,2.47
2023-05-14T23:40:21.635Z,2.22
2023-05-14T23:42:26.484Z,2.17
2023-05-14T23:44:31.552Z,2.53
2023-05-14T23:46:36.618Z,2.67
2023-05-14T23:48:41.366Z,2.20
2023-05-14T23:50:46.622Z,2.92
2023-05-14T23:52:54.222Z,2.35
2023-05-14T23:54:59.105Z,3.15
2023-05-14T23:57:06.014Z,2.28
2023-05-14T23:59:11.883Z,2.10
